Time,TemperatureF,DewpointF,PressureIn,WindDirection,WindDirectionDegrees,WindSpeedMPH,WindSpeedGustMPH,Humidity,HourlyPrecipIn,Conditions,Clouds,dailyrainin,SolarRadiationWatts/m^2,SoftwareType,DateUTC
2013-09-19 00:01:00,54.4,48.0,30.10,South,174,0.0,0.0,79,0.00,,,0.00,0,Wunderground v.1.15,2013-09-19 04:01:00,
2013-09-19 00:02:00,54.4,48.0,30.10,South,174,0.0,0.0,79,0.00,,,0.00,0,Wunderground v.1.15,2013-09-19 04:02:00,
2013-09-19 00:03:00,54.4,48.0,30.10,South,174,0.0,0.0,79,0.00,,,0.00,0,Wunderground v.1.15,2013-09-19 04:03:00,
2013-09-19 00:04:00,54.4,48.0,30.10,South,174,0.0,0.0,79,0.00,,,0.00,0,Wunderground v.1.15,2013-09-19 04:04:00,
2013-09-19 00:07:00,54.4,48.4,30.10,South,174,0.0,0.0,80,0.00,,,0.00,0,Wunderground v.1.15,2013-09-19 04:07:00,
2013-09-19 00:08:00,54.4,48.4,30.10,South,174,0.0,0.0,80,0.00,,,0.00,0,Wunderground v.1.15,2013-09-19 04:08:00,
2013-09-19 00:13:00,54.2,48.5,30.10,South,174,0.0,1.0,81,0.00,,,0.00,0,Wunderground v.1.15,2013-09-19 04:13:00,
2013-09-19 00:19:00,54.1,48.7,30.09,South,174,0.0,1.0,82,0.00,,,0.00,0,Wunderground v.1.15,2013-09-19 04:19:00,
2013-09-19 00:25:00,53.9,48.5,30.09,South,174,0.0,0.0,82,0.00,,,0.00,0,Wunderground v.1.15,2013-09-19 04:25:00,
2013-09-19 00:31:00,53.9,48.9,30.09,South,174,0.0,0.0,83,0.00,,,0.00,0,Wunderground v.1.15,2013-09-19 04:31:00,
2013-09-19 00:36:00,53.8,48.8,30.09,South,174,0.0,0.0,83,0.00,,,0.00,0,Wunderground v.1.15,2013-09-19 04:36:00,
2013-09-19 00:42:00,53.6,48.6,30.09,SE,124,0.0,0.0,83,0.00,,,0.00,0,Wunderground v.1.15,2013-09-19 04:42:00,
2013-09-19 00:48:00,53.8,48.8,30.09,SE,124,0.0,1.0,83,0.00,,,0.00,0,Wunderground v.1.15,2013-09-19 04:48:00,
2013-09-19 00:53:00,53.6,48.6,30.09,SE,124,0.0,0.0,83,0.00,,,0.00,0,Wunderground v.1.15,2013-09-19 04:53:00,
2013-09-19 00:59:00,53.6,48.9,30.10,SSE,158,0.0,0.0,84,0.00,,,0.00,0,Wunderground v.1.15,2013-09-19 04:59:00,
2013-09-19 01:06:00,53.8,49.1,30.10,SSE,158,0.0,0.0,84,0.00,,,0.00,0,Wunderground v.1.15,2013-09-19 05:06:00,
2013-09-19 01:11:00,53.8,49.1,30.10,SSE,158,0.0,0.0,84,0.00,,,0.00,0,Wunderground v.1.15,2013-09-19 05:11:00,
2013-09-19 01:17:00,53.6,48.9,30.10,SSE,158,0.0,0.0,84,0.00,,,0.00,0,Wunderground v.1.15,2013-09-19 05:17:00,
2013-09-19 01:23:00,53.5,48.8,30.10,SSE,157,0.0,0.0,84,0.00,,,0.00,0,Wunderground v.1.15,2013-09-19 05:23:00,
2013-09-19 01:28:00,53.5,48.8,30.10,SSE,158,0.0,1.0,84,0.00,,,0.00,0,Wunderground v.1.15,2013-09-19 05:28:00,
2013-09-19 01:34:00,53.5,48.5,30.10,SSE,158,0.0,0.0,83,0.00,,,0.00,0,Wunderground v.1.15,2013-09-19 05:34:00,
2013-09-19 01:40:00,53.3,48.3,30.10,SSE,158,0.0,0.0,83,0.00,,,0.00,0,Wunderground v.1.15,2013-09-19 05:40:00,
2013-09-19 01:46:00,53.3,47.9,30.10,SSE,158,0.0,0.0,82,0.00,,,0.00,0,Wunderground v.1.15,2013-09-19 05:46:00,
2013-09-19 01:51:00,53.2,47.8,30.10,SSE,158,0.0,0.0,82,0.00,,,0.00,0,Wunderground v.1.15,2013-09-19 05:51:00,
2013-09-19 01:57:00,53.2,47.8,30.10,SSE,158,0.0,0.0,82,0.00,,,0.00,0,Wunderground v.1.15,2013-09-19 05:57:00,
2013-09-19 02:03:00,53.1,47.7,30.10,SSE,158,0.0,0.0,82,0.00,,,0.00,0,Wunderground v.1.15,2013-09-19 06:03:00,
2013-09-19 02:09:00,53.1,47.7,30.10,SSE,158,0.0,0.0,82,0.00,,,0.00,0,Wunderground v.1.15,2013-09-19 06:09:00,
2013-09-19 02:14:00,53.1,47.7,30.10,SSE,158,0.0,0.0,82,0.00,,,0.00,0,Wunderground v.1.15,2013-09-19 06:14:00,
2013-09-19 02:20:00,52.9,47.9,30.10,SSE,158,0.0,0.0,83,0.00,,,0.00,0,Wunderground v.1.15,2013-09-19 06:20:00,
2013-09-19 02:26:00,52.8,47.8,30.10,SSE,158,0.0,0.0,83,0.00,,,0.00,0,Wunderground v.1.15,2013-09-19 06:26:00,
2013-09-19 02:32:00,52.6,47.6,30.09,SSE,158,0.0,0.0,83,0.00,,,0.00,0,Wunderground v.1.15,2013-09-19 06:32:00,
2013-09-19 02:37:00,52.6,47.6,30.09,SSE,158,0.0,0.0,83,0.00,,,0.00,0,Wunderground v.1.15,2013-09-19 06:37:00,
2013-09-19 02:43:00,52.5,47.5,30.09,SSE,158,0.0,0.0,83,0.00,,,0.00,0,Wunderground v.1.15,2013-09-19 06:43:00,
2013-09-19 02:49:00,52.3,47.3,30.10,SSE,158,0.0,0.0,83,0.00,,,0.00,0,Wunderground v.1.15,2013-09-19 06:49:00,
2013-09-19 02:54:00,52.2,47.2,30.10,SSE,158,0.0,0.0,83,0.00,,,0.00,0,Wunderground v.1.15,2013-09-19 06:54:00,
2013-09-19 03:00:00,51.9,46.9,30.09,SSE,158,0.0,0.0,83,0.00,,,0.00,0,Wunderground v.1.15,2013-09-19 07:00:00,
2013-09-19 03:06:00,51.7,46.7,30.09,SSE,158,0.0,0.0,83,0.00,,,0.00,0,Wunderground v.1.15,2013-09-19 07:06:00,
2013-09-19 03:11:00,51.6,46.6,30.09,SSE,158,0.0,0.0,83,0.00,,,0.00,0,Wunderground v.1.15,2013-09-19 07:11:00,
2013-09-19 03:16:00,51.4,46.4,30.09,SSE,157,0.0,0.0,83,0.00,,,0.00,0,Wunderground v.1.15,2013-09-19 07:16:00,
2013-09-19 03:22:00,51.4,46.7,30.09,SSE,158,0.0,0.0,84,0.00,,,0.00,0,Wunderground v.1.15,2013-09-19 07:22:00,
2013-09-19 03:27:00,51.3,46.6,30.09,SSE,157,0.0,0.0,84,0.00,,,0.00,0,Wunderground v.1.15,2013-09-19 07:27:00,
2013-09-19 03:33:00,51.1,46.7,30.09,SSE,158,0.0,0.0,85,0.00,,,0.00,0,Wunderground v.1.15,2013-09-19 07:33:00,
2013-09-19 03:38:00,51.0,46.6,30.09,SSE,158,0.0,0.0,85,0.00,,,0.00,0,Wunderground v.1.15,2013-09-19 07:38:00,
2013-09-19 03:44:00,50.8,46.8,30.09,SSE,158,0.0,0.0,86,0.00,,,0.00,0,Wunderground v.1.15,2013-09-19 07:44:00,
2013-09-19 03:50:00,50.8,47.1,30.09,SSE,158,0.0,0.0,87,0.00,,,0.00,0,Wunderground v.1.15,2013-09-19 07:50:00,
2013-09-19 03:56:00,50.8,47.1,30.09,SSE,158,0.0,0.0,87,0.00,,,0.00,0,Wunderground v.1.15,2013-09-19 07:56:00,
2013-09-19 04:02:00,50.7,46.7,30.09,SSE,157,0.0,0.0,86,0.00,,,0.00,0,Wunderground v.1.15,2013-09-19 08:02:00,
2013-09-19 04:07:00,50.7,46.7,30.09,SSE,157,0.0,0.0,86,0.00,,,0.00,0,Wunderground v.1.15,2013-09-19 08:07:00,
2013-09-19 04:13:00,50.5,46.5,30.09,SSE,158,0.0,0.0,86,0.00,,,0.00,0,Wunderground v.1.15,2013-09-19 08:13:00,
2013-09-19 04:19:00,50.5,46.5,30.10,SSE,157,0.0,0.0,86,0.00,,,0.00,0,Wunderground v.1.15,2013-09-19 08:19:00,
2013-09-19 04:24:00,50.2,46.2,30.10,SSE,158,0.0,0.0,86,0.00,,,0.00,0,Wunderground v.1.15,2013-09-19 08:24:00,
2013-09-19 04:30:00,50.1,46.1,30.10,SSE,157,0.0,0.0,86,0.00,,,0.00,0,Wunderground v.1.15,2013-09-19 08:30:00,
2013-09-19 04:36:00,49.9,45.9,30.10,SSE,158,0.0,0.0,86,0.00,,,0.00,0,Wunderground v.1.15,2013-09-19 08:36:00,
2013-09-19 04:42:00,49.8,45.8,30.10,SSE,157,0.0,0.0,86,0.00,,,0.00,0,Wunderground v.1.15,2013-09-19 08:42:00,
2013-09-19 04:47:00,49.8,45.8,30.09,SSE,157,0.0,0.0,86,0.00,,,0.00,0,Wunderground v.1.15,2013-09-19 08:47:00,
2013-09-19 04:53:00,49.8,46.1,30.09,SSE,158,0.0,0.0,87,0.00,,,0.00,0,Wunderground v.1.15,2013-09-19 08:53:00,
2013-09-19 04:59:00,49.6,45.9,30.10,SSE,158,0.0,0.0,87,0.00,,,0.00,0,Wunderground v.1.15,2013-09-19 08:59:00,
2013-09-19 05:06:00,49.6,45.9,30.10,SSE,157,0.0,0.0,87,0.00,,,0.00,0,Wunderground v.1.15,2013-09-19 09:06:00,
2013-09-19 05:11:00,49.5,45.8,30.10,SSE,158,0.0,0.0,87,0.00,,,0.00,0,Wunderground v.1.15,2013-09-19 09:11:00,
2013-09-19 05:17:00,49.4,45.7,30.10,SSE,158,0.0,0.0,87,0.00,,,0.00,0,Wunderground v.1.15,2013-09-19 09:17:00,
2013-09-19 05:22:00,49.4,45.7,30.10,SSE,158,0.0,0.0,87,0.00,,,0.00,0,Wunderground v.1.15,2013-09-19 09:22:00,
2013-09-19 05:28:00,49.2,45.5,30.10,SSE,157,0.0,0.0,87,0.00,,,0.00,0,Wunderground v.1.15,2013-09-19 09:28:00,
2013-09-19 05:34:00,49.2,45.5,30.10,SSE,157,0.0,0.0,87,0.00,,,0.00,0,Wunderground v.1.15,2013-09-19 09:34:00,
2013-09-19 05:39:00,49.2,45.5,30.10,SSE,157,0.0,0.0,87,0.00,,,0.00,0,Wunderground v.1.15,2013-09-19 09:39:00,
2013-09-19 05:45:00,49.1,45.4,30.10,SSE,158,0.0,0.0,87,0.00,,,0.00,0,Wunderground v.1.15,2013-09-19 09:45:00,
2013-09-19 05:50:00,48.9,45.2,30.10,SSE,157,0.0,0.0,87,0.00,,,0.00,0,Wunderground v.1.15,2013-09-19 09:50:00,
2013-09-19 05:56:00,48.8,45.1,30.10,SSE,158,0.0,0.0,87,0.00,,,0.00,0,Wunderground v.1.15,2013-09-19 09:56:00,
2013-09-19 06:02:00,48.6,44.9,30.10,SSE,158,0.0,0.0,87,0.00,,,0.00,0,Wunderground v.1.15,2013-09-19 10:02:00,
2013-09-19 06:08:00,48.6,45.2,30.10,SSE,157,0.0,0.0,88,0.00,,,0.00,0,Wunderground v.1.15,2013-09-19 10:08:00,
2013-09-19 06:14:00,48.5,45.1,30.10,SSE,157,0.0,0.0,88,0.00,,,0.00,0,Wunderground v.1.15,2013-09-19 10:14:00,
2013-09-19 06:20:00,48.5,45.4,30.10,SSE,151,0.0,0.0,89,0.00,,,0.00,0,Wunderground v.1.15,2013-09-19 10:20:00,
2013-09-19 06:26:00,48.5,45.4,30.10,SSE,151,0.0,0.0,89,0.00,,,0.00,0,Wunderground v.1.15,2013-09-19 10:26:00,
2013-09-19 06:31:00,48.3,45.2,30.10,SSE,151,0.0,0.0,89,0.00,,,0.00,0,Wunderground v.1.15,2013-09-19 10:31:00,
2013-09-19 06:37:00,48.3,45.2,30.10,SSE,151,0.0,0.0,89,0.00,,,0.00,0,Wunderground v.1.15,2013-09-19 10:37:00,
2013-09-19 06:43:00,48.2,45.1,30.10,SSE,151,0.0,0.0,89,0.00,,,0.00,0,Wunderground v.1.15,2013-09-19 10:43:00,
2013-09-19 06:49:00,48.2,45.1,30.10,East,85,0.0,0.0,89,0.00,,,0.00,5,Wunderground v.1.15,2013-09-19 10:49:00,
2013-09-19 06:55:00,48.0,44.9,30.10,East,85,0.0,1.0,89,0.00,,,0.00,7,Wunderground v.1.15,2013-09-19 10:55:00,
2013-09-19 07:01:00,48.0,44.9,30.10,East,85,0.0,0.0,89,0.00,,,0.00,7,Wunderground v.1.15,2013-09-19 11:01:00,
2013-09-19 07:06:00,48.0,44.9,30.10,East,85,0.0,0.0,89,0.00,,,0.00,9,Wunderground v.1.15,2013-09-19 11:06:00,
2013-09-19 07:11:00,48.0,44.9,30.10,East,85,0.0,0.0,89,0.00,,,0.00,9,Wunderground v.1.15,2013-09-19 11:11:00,
2013-09-19 07:17:00,47.9,44.8,30.11,East,85,0.0,0.0,89,0.00,,,0.00,11,Wunderground v.1.15,2013-09-19 11:17:00,
2013-09-19 07:22:00,47.7,44.6,30.11,East,85,0.0,0.0,89,0.00,,,0.00,14,Wunderground v.1.15,2013-09-19 11:22:00,
2013-09-19 07:28:00,47.7,44.6,30.11,East,85,0.0,0.0,89,0.00,,,0.00,16,Wunderground v.1.15,2013-09-19 11:28:00,
2013-09-19 07:33:00,47.7,44.6,30.11,East,85,0.0,0.0,89,0.00,,,0.00,18,Wunderground v.1.15,2013-09-19 11:33:00,
2013-09-19 07:39:00,47.9,44.8,30.11,East,85,0.0,0.0,89,0.00,,,0.00,19,Wunderground v.1.15,2013-09-19 11:39:00,
2013-09-19 07:45:00,48.0,45.2,30.11,East,85,0.0,0.0,90,0.00,,,0.00,21,Wunderground v.1.15,2013-09-19 11:45:00,
2013-09-19 07:51:00,48.2,45.4,30.11,East,85,0.0,0.0,90,0.00,,,0.00,21,Wunderground v.1.15,2013-09-19 11:51:00,
2013-09-19 07:56:00,48.0,45.2,30.11,East,85,0.0,0.0,90,0.00,,,0.00,23,Wunderground v.1.15,2013-09-19 11:56:00,
2013-09-19 08:01:00,48.0,45.2,30.11,East,85,0.0,0.0,90,0.00,,,0.00,25,Wunderground v.1.15,2013-09-19 12:01:00,
2013-09-19 08:07:00,48.2,45.4,30.11,East,85,0.0,0.0,90,0.00,,,0.00,30,Wunderground v.1.15,2013-09-19 12:07:00,
2013-09-19 08:13:00,48.6,46.1,30.11,East,85,0.0,0.0,91,0.00,,,0.00,54,Wunderground v.1.15,2013-09-19 12:13:00,
2013-09-19 08:18:00,48.9,46.4,30.11,East,85,0.0,0.0,91,0.00,,,0.00,39,Wunderground v.1.15,2013-09-19 12:18:00,
2013-09-19 08:24:00,49.4,46.9,30.11,East,85,0.0,0.0,91,0.00,,,0.00,33,Wunderground v.1.15,2013-09-19 12:24:00,
2013-09-19 08:30:00,49.6,47.1,30.11,East,85,0.0,0.0,91,0.00,,,0.00,111,Wunderground v.1.15,2013-09-19 12:30:00,
2013-09-19 08:36:00,50.1,47.6,30.11,East,85,0.0,0.0,91,0.00,,,0.00,53,Wunderground v.1.15,2013-09-19 12:36:00,
2013-09-19 08:41:00,50.5,48.0,30.11,East,85,0.0,0.0,91,0.00,,,0.00,84,Wunderground v.1.15,2013-09-19 12:41:00,
2013-09-19 08:47:00,51.0,48.5,30.10,East,85,0.0,0.0,91,0.00,,,0.00,100,Wunderground v.1.15,2013-09-19 12:47:00,
2013-09-19 08:53:00,51.4,48.6,30.10,East,85,0.0,0.0,90,0.00,,,0.00,151,Wunderground v.1.15,2013-09-19 12:53:00,
2013-09-19 08:58:00,51.9,49.1,30.10,East,85,0.0,0.0,90,0.00,,,0.00,98,Wunderground v.1.15,2013-09-19 12:58:00,
2013-09-19 09:04:00,52.3,49.2,30.10,East,85,0.0,0.0,89,0.00,,,0.00,135,Wunderground v.1.15,2013-09-19 13:04:00,
2013-09-19 09:11:00,52.9,49.7,30.10,East,85,0.0,0.0,89,0.00,,,0.00,207,Wunderground v.1.15,2013-09-19 13:11:00,
2013-09-19 09:16:00,53.5,50.3,30.10,East,85,0.0,0.0,89,0.00,,,0.00,418,Wunderground v.1.15,2013-09-19 13:16:00,
2013-09-19 09:22:00,54.1,50.9,30.10,East,86,0.0,0.0,89,0.00,,,0.00,46,Wunderground v.1.15,2013-09-19 13:22:00,
2013-09-19 09:27:00,54.4,50.9,30.10,East,86,0.0,0.0,88,0.00,,,0.00,46,Wunderground v.1.15,2013-09-19 13:27:00,
2013-09-19 09:33:00,54.7,50.9,30.10,East,86,0.0,0.0,87,0.00,,,0.00,47,Wunderground v.1.15,2013-09-19 13:33:00,
2013-09-19 09:39:00,55.1,51.0,30.10,East,86,0.0,0.0,86,0.00,,,0.00,51,Wunderground v.1.15,2013-09-19 13:39:00,
2013-09-19 09:45:00,55.4,50.6,30.10,SSE,165,0.0,0.0,84,0.00,,,0.00,62,Wunderground v.1.15,2013-09-19 13:45:00,
2013-09-19 09:50:00,55.7,50.9,30.10,SSE,162,0.0,0.0,84,0.00,,,0.00,76,Wunderground v.1.15,2013-09-19 13:50:00,
2013-09-19 09:56:00,56.3,50.9,30.10,SSW,193,0.0,0.0,82,0.00,,,0.00,387,Wunderground v.1.15,2013-09-19 13:56:00,
2013-09-19 10:01:00,57.0,50.9,30.09,SSW,195,0.0,0.0,80,0.00,,,0.00,608,Wunderground v.1.15,2013-09-19 14:01:00,
2013-09-19 10:07:00,58.3,52.2,30.09,SSE,160,0.0,0.0,80,0.00,,,0.00,622,Wunderground v.1.15,2013-09-19 14:07:00,
2013-09-19 10:12:00,59.3,52.1,30.09,SSW,202,0.0,0.0,77,0.00,,,0.00,635,Wunderground v.1.15,2013-09-19 14:12:00,
2013-09-19 10:18:00,60.7,52.4,30.09,South,172,0.0,0.0,74,0.00,,,0.00,647,Wunderground v.1.15,2013-09-19 14:18:00,
2013-09-19 10:24:00,62.0,52.1,30.09,South,172,0.0,0.0,70,0.00,,,0.00,659,Wunderground v.1.15,2013-09-19 14:24:00,
2013-09-19 10:30:00,63.2,52.5,30.09,South,172,0.0,0.0,68,0.00,,,0.00,673,Wunderground v.1.15,2013-09-19 14:30:00,
2013-09-19 10:35:00,64.0,52.4,30.09,South,172,0.0,0.0,66,0.00,,,0.00,682,Wunderground v.1.15,2013-09-19 14:35:00,
2013-09-19 10:41:00,65.3,53.6,30.09,South,172,0.0,2.0,66,0.00,,,0.00,693,Wunderground v.1.15,2013-09-19 14:41:00,
2013-09-19 10:47:00,66.8,55.1,30.08,South,172,0.0,2.0,66,0.00,,,0.00,705,Wunderground v.1.15,2013-09-19 14:47:00,
2013-09-19 10:52:00,67.4,53.9,30.08,South,172,0.0,0.0,62,0.00,,,0.00,714,Wunderground v.1.15,2013-09-19 14:52:00,
2013-09-19 10:58:00,68.8,54.8,30.08,SE,141,0.0,1.0,61,0.00,,,0.00,722,Wunderground v.1.15,2013-09-19 14:58:00,
2013-09-19 11:04:00,69.3,53.4,30.08,SE,141,0.0,0.0,57,0.00,,,0.00,733,Wunderground v.1.15,2013-09-19 15:04:00,
2013-09-19 11:09:00,69.6,55.1,30.08,SE,141,0.0,0.0,60,0.00,,,0.00,740,Wunderground v.1.15,2013-09-19 15:09:00,
2013-09-19 11:15:00,70.3,55.3,30.08,SE,141,0.0,0.0,59,0.00,,,0.00,749,Wunderground v.1.15,2013-09-19 15:15:00,
2013-09-19 11:20:00,70.4,56.3,30.08,South,177,0.0,0.0,61,0.00,,,0.00,759,Wunderground v.1.15,2013-09-19 15:20:00,
2013-09-19 11:26:00,70.6,54.1,30.08,South,177,0.0,0.0,56,0.00,,,0.00,763,Wunderground v.1.15,2013-09-19 15:26:00,
2013-09-19 11:32:00,71.1,55.6,30.08,South,178,0.0,0.0,58,0.00,,,0.00,766,Wunderground v.1.15,2013-09-19 15:32:00,
2013-09-19 11:37:00,71.5,55.5,30.08,South,178,0.0,0.0,57,0.00,,,0.00,773,Wunderground v.1.15,2013-09-19 15:37:00,
2013-09-19 11:43:00,72.5,55.9,30.08,South,178,0.0,0.0,56,0.00,,,0.00,780,Wunderground v.1.15,2013-09-19 15:43:00,
2013-09-19 11:49:00,73.0,55.4,30.08,South,178,0.0,0.0,54,0.00,,,0.00,788,Wunderground v.1.15,2013-09-19 15:49:00,
2013-09-19 11:54:00,73.7,55.5,30.08,South,179,0.0,0.0,53,0.00,,,0.00,789,Wunderground v.1.15,2013-09-19 15:54:00,
2013-09-19 12:00:00,74.6,55.8,30.08,South,179,0.0,0.0,52,0.00,,,0.00,793,Wunderground v.1.15,2013-09-19 16:00:00,
2013-09-19 12:06:00,74.4,56.2,30.08,South,178,0.0,0.0,53,0.00,,,0.00,796,Wunderground v.1.15,2013-09-19 16:06:00,
2013-09-19 12:12:00,74.9,56.1,30.08,South,178,0.0,0.0,52,0.00,,,0.00,800,Wunderground v.1.15,2013-09-19 16:12:00,
2013-09-19 12:18:00,74.4,56.2,30.07,South,178,0.0,1.0,53,0.00,,,0.00,805,Wunderground v.1.15,2013-09-19 16:18:00,
2013-09-19 12:23:00,74.0,55.8,30.07,South,178,0.0,0.0,53,0.00,,,0.00,805,Wunderground v.1.15,2013-09-19 16:23:00,
2013-09-19 12:29:00,74.2,54.9,30.06,South,178,0.0,0.0,51,0.00,,,0.00,807,Wunderground v.1.15,2013-09-19 16:29:00,
2013-09-19 12:35:00,74.4,55.1,30.06,South,178,0.0,0.0,51,0.00,,,0.00,805,Wunderground v.1.15,2013-09-19 16:35:00,
2013-09-19 12:41:00,74.7,55.9,30.06,South,179,0.0,0.0,52,0.00,,,0.00,805,Wunderground v.1.15,2013-09-19 16:41:00,
2013-09-19 12:46:00,75.1,55.7,30.06,SSE,152,0.0,2.0,51,0.00,,,0.00,805,Wunderground v.1.15,2013-09-19 16:46:00,
2013-09-19 12:51:00,75.8,56.4,30.06,SSE,152,0.0,0.0,51,0.00,,,0.00,805,Wunderground v.1.15,2013-09-19 16:51:00,
2013-09-19 12:57:00,75.8,58.5,30.06,SSE,152,0.0,0.0,55,0.00,,,0.00,803,Wunderground v.1.15,2013-09-19 16:57:00,
2013-09-19 13:02:00,76.0,55.5,30.05,SSE,152,0.0,0.0,49,0.00,,,0.00,802,Wunderground v.1.15,2013-09-19 17:02:00,
2013-09-19 13:08:00,76.3,55.2,30.05,South,174,0.0,1.0,48,0.00,,,0.00,798,Wunderground v.1.15,2013-09-19 17:08:00,
2013-09-19 13:13:00,76.1,55.0,30.05,South,180,0.0,0.0,48,0.00,,,0.00,795,Wunderground v.1.15,2013-09-19 17:13:00,
2013-09-19 13:18:00,76.3,56.3,30.05,SSE,156,0.0,0.0,50,0.00,,,0.00,793,Wunderground v.1.15,2013-09-19 17:18:00,
2013-09-19 13:24:00,77.4,54.4,30.05,SSE,157,0.0,0.0,45,0.00,,,0.00,780,Wunderground v.1.15,2013-09-19 17:24:00,
2013-09-19 13:30:00,78.1,55.0,30.04,SSE,157,0.0,0.0,45,0.00,,,0.00,777,Wunderground v.1.15,2013-09-19 17:30:00,
2013-09-19 13:35:00,77.7,57.0,30.04,SSE,157,0.0,0.0,49,0.00,,,0.00,775,Wunderground v.1.15,2013-09-19 17:35:00,
2013-09-19 13:41:00,76.5,53.0,30.04,SSE,157,0.0,0.0,44,0.00,,,0.00,772,Wunderground v.1.15,2013-09-19 17:41:00,
2013-09-19 13:47:00,76.3,52.8,30.03,SSE,157,0.0,0.0,44,0.00,,,0.00,765,Wunderground v.1.15,2013-09-19 17:47:00,
2013-09-19 13:52:00,77.4,53.8,30.03,SSE,157,0.0,0.0,44,0.00,,,0.00,756,Wunderground v.1.15,2013-09-19 17:52:00,
2013-09-19 13:58:00,78.3,54.6,30.03,SSE,157,0.0,0.0,44,0.00,,,0.00,747,Wunderground v.1.15,2013-09-19 17:58:00,
2013-09-19 14:03:00,78.6,55.5,30.03,SSE,157,0.0,0.0,45,0.00,,,0.00,738,Wunderground v.1.15,2013-09-19 18:03:00,
2013-09-19 14:09:00,77.7,55.9,30.03,SSE,157,0.0,0.0,47,0.00,,,0.00,731,Wunderground v.1.15,2013-09-19 18:09:00,
2013-09-19 14:15:00,76.7,55.0,30.02,SSE,158,0.0,1.0,47,0.00,,,0.00,722,Wunderground v.1.15,2013-09-19 18:15:00,
2013-09-19 14:21:00,77.0,55.2,30.02,SSE,158,0.0,0.0,47,0.00,,,0.00,715,Wunderground v.1.15,2013-09-19 18:21:00,
2013-09-19 14:26:00,77.6,54.6,30.02,SSE,158,0.0,0.0,45,0.00,,,0.00,703,Wunderground v.1.15,2013-09-19 18:26:00,
2013-09-19 14:32:00,78.3,57.0,30.01,SSE,158,0.0,0.0,48,0.00,,,0.00,689,Wunderground v.1.15,2013-09-19 18:32:00,
2013-09-19 14:37:00,78.8,56.9,30.01,SSE,158,0.0,0.0,47,0.00,,,0.00,680,Wunderground v.1.15,2013-09-19 18:37:00,
2013-09-19 14:43:00,78.1,55.6,30.01,SSE,158,0.0,0.0,46,0.00,,,0.00,668,Wunderground v.1.15,2013-09-19 18:43:00,
2013-09-19 14:49:00,78.5,56.6,30.01,SSE,158,0.0,0.0,47,0.00,,,0.00,657,Wunderground v.1.15,2013-09-19 18:49:00,
2013-09-19 14:54:00,78.6,54.9,30.01,SSE,158,0.0,0.0,44,0.00,,,0.00,647,Wunderground v.1.15,2013-09-19 18:54:00,
2013-09-19 15:00:00,78.1,56.2,30.01,SSE,158,0.0,0.0,47,0.00,,,0.00,631,Wunderground v.1.15,2013-09-19 19:00:00,
2013-09-19 15:06:00,78.5,52.8,30.01,SSE,158,0.0,0.0,41,0.00,,,0.00,622,Wunderground v.1.15,2013-09-19 19:06:00,
2013-09-19 15:11:00,79.6,55.1,30.01,SSE,158,0.0,0.0,43,0.00,,,0.00,606,Wunderground v.1.15,2013-09-19 19:11:00,
2013-09-19 15:16:00,80.1,53.6,30.00,SSE,158,0.0,0.0,40,0.00,,,0.00,596,Wunderground v.1.15,2013-09-19 19:16:00,
2013-09-19 15:21:00,80.3,53.8,30.00,SSE,158,0.0,0.0,40,0.00,,,0.00,580,Wunderground v.1.15,2013-09-19 19:21:00,
2013-09-19 15:26:00,80.3,55.1,30.00,SSE,158,0.0,0.0,42,0.00,,,0.00,564,Wunderground v.1.15,2013-09-19 19:26:00,
2013-09-19 15:32:00,79.9,53.4,30.00,SSE,158,0.0,0.0,40,0.00,,,0.00,554,Wunderground v.1.15,2013-09-19 19:32:00,
2013-09-19 15:38:00,79.8,51.9,30.00,SSE,158,0.0,0.0,38,0.00,,,0.00,534,Wunderground v.1.15,2013-09-19 19:38:00,
2013-09-19 15:43:00,80.3,55.1,30.00,SE,131,0.0,0.0,42,0.00,,,0.00,522,Wunderground v.1.15,2013-09-19 19:43:00,
2013-09-19 15:49:00,80.3,52.4,30.00,SE,131,0.0,0.0,38,0.00,,,0.00,501,Wunderground v.1.15,2013-09-19 19:49:00,
2013-09-19 15:55:00,79.8,50.5,30.00,SW,214,0.0,0.0,36,0.00,,,0.00,483,Wunderground v.1.15,2013-09-19 19:55:00,
2013-09-19 16:01:00,79.4,50.9,29.99,SW,214,0.0,0.0,37,0.00,,,0.00,464,Wunderground v.1.15,2013-09-19 20:01:00,
2013-09-19 16:06:00,78.5,52.2,29.99,SW,214,0.0,0.0,40,0.00,,,0.00,450,Wunderground v.1.15,2013-09-19 20:06:00,
2013-09-19 16:11:00,77.6,52.0,29.99,SW,214,0.0,0.0,41,0.00,,,0.00,411,Wunderground v.1.15,2013-09-19 20:11:00,
2013-09-19 16:17:00,76.8,52.0,29.99,SSE,165,0.0,1.0,42,0.00,,,0.00,56,Wunderground v.1.15,2013-09-19 20:17:00,
2013-09-19 16:22:00,75.6,52.1,29.99,SSE,165,0.0,0.0,44,0.00,,,0.00,44,Wunderground v.1.15,2013-09-19 20:22:00,
2013-09-19 16:28:00,74.6,51.2,29.99,SSE,165,0.0,0.0,44,0.00,,,0.00,42,Wunderground v.1.15,2013-09-19 20:28:00,
2013-09-19 16:34:00,73.7,52.2,29.99,SSE,165,0.0,0.0,47,0.00,,,0.00,40,Wunderground v.1.15,2013-09-19 20:34:00,
2013-09-19 16:39:00,73.0,52.1,29.99,SSE,165,0.0,0.0,48,0.00,,,0.00,40,Wunderground v.1.15,2013-09-19 20:39:00,
2013-09-19 16:45:00,72.3,52.1,29.99,SSE,165,0.0,0.0,49,0.00,,,0.00,39,Wunderground v.1.15,2013-09-19 20:45:00,
2013-09-19 16:51:00,71.8,52.7,29.99,SSE,165,0.0,0.0,51,0.00,,,0.00,37,Wunderground v.1.15,2013-09-19 20:51:00,
2013-09-19 16:57:00,71.1,53.1,29.99,SSE,165,0.0,0.0,53,0.00,,,0.00,74,Wunderground v.1.15,2013-09-19 20:57:00,
2013-09-19 17:02:00,70.6,53.1,29.99,SSE,165,0.0,0.0,54,0.00,,,0.00,33,Wunderground v.1.15,2013-09-19 21:02:00,
2013-09-19 17:07:00,70.3,52.4,29.99,SSE,165,0.0,0.0,53,0.00,,,0.00,33,Wunderground v.1.15,2013-09-19 21:07:00,
2013-09-19 17:13:00,70.1,53.2,29.99,SSE,165,0.0,0.0,55,0.00,,,0.00,32,Wunderground v.1.15,2013-09-19 21:13:00,
2013-09-19 17:18:00,69.8,53.4,29.99,SSE,165,0.0,0.0,56,0.00,,,0.00,30,Wunderground v.1.15,2013-09-19 21:18:00,
2013-09-19 17:24:00,69.4,53.5,29.99,SSE,165,0.0,0.0,57,0.00,,,0.00,28,Wunderground v.1.15,2013-09-19 21:24:00,
2013-09-19 17:30:00,69.3,53.9,29.99,SSE,165,0.0,0.0,58,0.00,,,0.00,26,Wunderground v.1.15,2013-09-19 21:30:00,
2013-09-19 17:36:00,69.1,54.2,29.99,SSE,165,0.0,0.0,59,0.00,,,0.00,25,Wunderground v.1.15,2013-09-19 21:36:00,
2013-09-19 17:41:00,68.9,54.4,29.99,SSE,165,0.0,0.0,60,0.00,,,0.00,23,Wunderground v.1.15,2013-09-19 21:41:00,
2013-09-19 17:47:00,68.6,54.2,29.98,SSE,165,0.0,0.0,60,0.00,,,0.00,21,Wunderground v.1.15,2013-09-19 21:47:00,
2013-09-19 17:52:00,68.4,54.4,29.98,SSE,165,0.0,0.0,61,0.00,,,0.00,21,Wunderground v.1.15,2013-09-19 21:52:00,
2013-09-19 17:58:00,68.1,55.0,29.98,SSE,165,0.0,0.0,63,0.00,,,0.00,19,Wunderground v.1.15,2013-09-19 21:58:00,
2013-09-19 18:04:00,67.8,55.2,29.99,SSE,165,0.0,0.0,64,0.00,,,0.00,18,Wunderground v.1.15,2013-09-19 22:04:00,
2013-09-19 18:09:00,67.6,55.8,29.99,SSE,165,0.0,0.0,66,0.00,,,0.00,16,Wunderground v.1.15,2013-09-19 22:09:00,
2013-09-19 18:14:00,67.3,55.5,29.99,SSE,165,0.0,0.0,66,0.00,,,0.00,14,Wunderground v.1.15,2013-09-19 22:14:00,
2013-09-19 18:20:00,66.8,55.5,29.99,SSE,165,0.0,0.0,67,0.00,,,0.00,12,Wunderground v.1.15,2013-09-19 22:20:00,
2013-09-19 18:26:00,66.4,55.1,29.99,SSE,165,0.0,0.0,67,0.00,,,0.00,11,Wunderground v.1.15,2013-09-19 22:26:00,
2013-09-19 18:31:00,66.1,55.2,29.99,SSE,165,0.0,0.0,68,0.00,,,0.00,9,Wunderground v.1.15,2013-09-19 22:31:00,
2013-09-19 18:37:00,65.8,55.3,29.99,SSE,165,0.0,0.0,69,0.00,,,0.00,7,Wunderground v.1.15,2013-09-19 22:37:00,
2013-09-19 18:43:00,65.3,54.9,29.99,SSE,165,0.0,0.0,69,0.00,,,0.00,5,Wunderground v.1.15,2013-09-19 22:43:00,
2013-09-19 18:49:00,65.0,54.6,30.00,SSE,165,0.0,1.0,69,0.00,,,0.00,5,Wunderground v.1.15,2013-09-19 22:49:00,
2013-09-19 18:55:00,64.5,54.5,30.00,SSE,165,0.0,0.0,70,0.00,,,0.00,0,Wunderground v.1.15,2013-09-19 22:55:00,
2013-09-19 19:00:00,64.3,54.3,30.00,SSE,165,0.0,0.0,70,0.00,,,0.00,0,Wunderground v.1.15,2013-09-19 23:00:00,
2013-09-19 19:06:00,64.0,54.0,30.00,SSE,165,0.0,0.0,70,0.00,,,0.00,0,Wunderground v.1.15,2013-09-19 23:06:00,
2013-09-19 19:11:00,63.7,54.1,30.00,SSE,165,0.0,0.0,71,0.00,,,0.00,0,Wunderground v.1.15,2013-09-19 23:11:00,
2013-09-19 19:16:00,63.4,54.2,30.00,SSE,165,0.0,0.0,72,0.00,,,0.00,0,Wunderground v.1.15,2013-09-19 23:16:00,
2013-09-19 19:22:00,63.1,54.3,30.00,SSE,165,0.0,0.0,73,0.00,,,0.00,0,Wunderground v.1.15,2013-09-19 23:22:00,
2013-09-19 19:27:00,62.7,53.9,30.00,SSE,165,0.0,0.0,73,0.00,,,0.00,0,Wunderground v.1.15,2013-09-19 23:27:00,
2013-09-19 19:33:00,62.3,53.5,30.01,SSE,165,0.0,0.0,73,0.00,,,0.00,0,Wunderground v.1.15,2013-09-19 23:33:00,
2013-09-19 19:39:00,62.0,53.6,30.01,SSE,165,0.0,0.0,74,0.00,,,0.00,0,Wunderground v.1.15,2013-09-19 23:39:00,
2013-09-19 19:44:00,61.8,53.8,30.02,SSE,165,0.0,0.0,75,0.00,,,0.00,0,Wunderground v.1.15,2013-09-19 23:44:00,
2013-09-19 19:50:00,61.6,53.6,30.02,South,169,0.0,0.0,75,0.00,,,0.00,0,Wunderground v.1.15,2013-09-19 23:50:00,
2013-09-19 19:56:00,61.6,53.6,30.02,South,172,0.0,0.0,75,0.00,,,0.00,0,Wunderground v.1.15,2013-09-19 23:56:00,
2013-09-19 20:01:00,61.5,53.5,30.02,WSW,245,0.0,1.0,75,0.00,,,0.00,0,Wunderground v.1.15,2013-09-20 00:01:00,
2013-09-19 20:07:00,61.5,53.5,30.02,SSE,157,0.0,1.0,75,0.00,,,0.00,0,Wunderground v.1.15,2013-09-20 00:07:00,
2013-09-19 20:13:00,61.3,53.3,30.02,SSE,157,0.0,0.0,75,0.00,,,0.00,0,Wunderground v.1.15,2013-09-20 00:13:00,
2013-09-19 20:18:00,61.2,53.2,30.02,SSE,158,0.0,2.0,75,0.00,,,0.00,0,Wunderground v.1.15,2013-09-20 00:18:00,
2013-09-19 20:24:00,61.0,52.7,30.02,SSE,157,0.0,1.0,74,0.00,,,0.00,0,Wunderground v.1.15,2013-09-20 00:24:00,
2013-09-19 20:29:00,60.9,52.6,30.02,SSE,157,0.0,1.0,74,0.00,,,0.00,0,Wunderground v.1.15,2013-09-20 00:29:00,
2013-09-19 20:35:00,60.5,52.5,30.02,SSE,157,0.0,0.0,75,0.00,,,0.00,0,Wunderground v.1.15,2013-09-20 00:35:00,
2013-09-19 20:41:00,60.5,52.5,30.02,SSE,157,0.0,0.0,75,0.00,,,0.00,0,Wunderground v.1.15,2013-09-20 00:41:00,
2013-09-19 20:46:00,60.4,52.1,30.02,SSE,157,0.0,0.0,74,0.00,,,0.00,0,Wunderground v.1.15,2013-09-20 00:46:00,
2013-09-19 20:52:00,60.1,51.8,30.02,SSE,157,0.0,0.0,74,0.00,,,0.00,0,Wunderground v.1.15,2013-09-20 00:52:00,
2013-09-19 20:58:00,59.9,52.0,30.02,SSE,157,0.0,0.0,75,0.00,,,0.00,0,Wunderground v.1.15,2013-09-20 00:58:00,
2013-09-19 21:03:00,59.9,52.0,30.02,SSE,157,0.0,0.0,75,0.00,,,0.00,0,Wunderground v.1.15,2013-09-20 01:03:00,
2013-09-19 21:09:00,59.8,51.9,30.02,SE,142,0.0,0.0,75,0.00,,,0.00,0,Wunderground v.1.15,2013-09-20 01:09:00,
2013-09-19 21:14:00,59.6,51.3,30.02,SE,142,0.0,1.0,74,0.00,,,0.00,0,Wunderground v.1.15,2013-09-20 01:14:00,
2013-09-19 21:19:00,59.5,51.2,30.02,South,189,0.0,1.0,74,0.00,,,0.00,0,Wunderground v.1.15,2013-09-20 01:19:00,
2013-09-19 21:25:00,59.3,51.0,30.02,SSW,193,0.0,1.0,74,0.00,,,0.00,0,Wunderground v.1.15,2013-09-20 01:25:00,
2013-09-19 21:31:00,59.3,51.0,30.02,SSE,148,0.0,0.0,74,0.00,,,0.00,0,Wunderground v.1.15,2013-09-20 01:31:00,
2013-09-19 21:36:00,59.2,50.9,30.02,SSE,148,0.0,1.0,74,0.00,,,0.00,0,Wunderground v.1.15,2013-09-20 01:36:00,
2013-09-19 21:42:00,59.2,50.9,30.02,SSE,148,0.0,0.0,74,0.00,,,0.00,0,Wunderground v.1.15,2013-09-20 01:42:00,
2013-09-19 21:49:00,59.0,50.7,30.02,SSE,148,0.0,0.0,74,0.00,,,0.00,0,Wunderground v.1.15,2013-09-20 01:49:00,
2013-09-19 21:54:00,58.9,50.6,30.02,SSE,148,0.0,1.0,74,0.00,,,0.00,0,Wunderground v.1.15,2013-09-20 01:54:00,
2013-09-19 22:00:00,58.7,50.4,30.02,SSE,148,0.0,0.0,74,0.00,,,0.00,0,Wunderground v.1.15,2013-09-20 02:00:00,
2013-09-19 22:06:00,58.7,50.4,30.02,SSE,148,0.0,0.0,74,0.00,,,0.00,0,Wunderground v.1.15,2013-09-20 02:06:00,
2013-09-19 22:11:00,58.4,50.1,30.02,SSE,148,0.0,0.0,74,0.00,,,0.00,0,Wunderground v.1.15,2013-09-20 02:11:00,
2013-09-19 22:17:00,58.4,50.1,30.02,SSE,148,0.0,0.0,74,0.00,,,0.00,0,Wunderground v.1.15,2013-09-20 02:17:00,
2013-09-19 22:22:00,58.3,50.0,30.02,SSE,148,0.0,0.0,74,0.00,,,0.00,0,Wunderground v.1.15,2013-09-20 02:22:00,
2013-09-19 22:28:00,58.1,49.9,30.02,SSE,148,0.0,0.0,74,0.00,,,0.00,0,Wunderground v.1.15,2013-09-20 02:28:00,
2013-09-19 22:33:00,58.1,49.9,30.02,SSE,148,0.0,0.0,74,0.00,,,0.00,0,Wunderground v.1.15,2013-09-20 02:33:00,
2013-09-19 22:39:00,58.0,49.8,30.02,SSE,148,0.0,0.0,74,0.00,,,0.00,0,Wunderground v.1.15,2013-09-20 02:39:00,
2013-09-19 22:45:00,58.0,49.4,30.02,SSE,148,0.0,0.0,73,0.00,,,0.00,0,Wunderground v.1.15,2013-09-20 02:45:00,
2013-09-19 22:51:00,58.0,49.4,30.02,SSE,148,0.0,0.0,73,0.00,,,0.00,0,Wunderground v.1.15,2013-09-20 02:51:00,
2013-09-19 22:56:00,58.0,49.4,30.02,SSE,148,0.0,1.0,73,0.00,,,0.00,0,Wunderground v.1.15,2013-09-20 02:56:00,
2013-09-19 23:02:00,58.0,49.4,30.03,SSE,148,0.0,0.0,73,0.00,,,0.00,0,Wunderground v.1.15,2013-09-20 03:02:00,
2013-09-19 23:08:00,57.8,49.6,30.03,SSE,148,0.0,0.0,74,0.00,,,0.00,0,Wunderground v.1.15,2013-09-20 03:08:00,
2013-09-19 23:14:00,57.6,49.4,30.03,SSE,148,0.0,0.0,74,0.00,,,0.00,0,Wunderground v.1.15,2013-09-20 03:14:00,
2013-09-19 23:20:00,57.5,49.6,30.03,SSE,148,0.0,0.0,75,0.00,,,0.00,0,Wunderground v.1.15,2013-09-20 03:20:00,
2013-09-19 23:26:00,57.5,49.6,30.03,SSE,148,0.0,1.0,75,0.00,,,0.00,0,Wunderground v.1.15,2013-09-20 03:26:00,
2013-09-19 23:31:00,57.5,49.6,30.02,SSE,148,0.0,1.0,75,0.00,,,0.00,0,Wunderground v.1.15,2013-09-20 03:31:00,
2013-09-19 23:37:00,57.3,49.4,30.02,SSE,148,0.0,1.0,75,0.00,,,0.00,0,Wunderground v.1.15,2013-09-20 03:37:00,
2013-09-19 23:43:00,57.3,49.8,30.02,SSE,148,0.0,0.0,76,0.00,,,0.00,0,Wunderground v.1.15,2013-09-20 03:43:00,
2013-09-19 23:48:00,57.3,49.4,30.02,SSE,148,0.0,0.0,75,0.00,,,0.00,0,Wunderground v.1.15,2013-09-20 03:48:00,
2013-09-19 23:53:00,57.2,49.3,30.02,SE,142,0.0,0.0,75,0.00,,,0.00,0,Wunderground v.1.15,2013-09-20 03:53:00,
2013-09-19 23:59:00,57.2,49.7,30.01,SE,142,0.0,1.0,76,0.00,,,0.00,0,Wunderground v.1.15,2013-09-20 03:59:00,